Accueil
METAR-TAF:

METAR-TAF

Aéroports :

Ogoki Post, Ontario, Canada

latitude: 51-39-31N, longitude: 85-54-04W, altitude: 181 m

Observation

Le bulletin a été fait il y a 24 minutes, à 15:00 UTC
Vent 7 kt de nord/nord-ouest
Température -4°C
Humidité 86%
Pression 1005 hPa
Visibilité: 14.5 km
Nuages fragmentés à une hauteur de 1700 ft

METAR: CYKP 281500Z AUTO 33007KT 9SM BKN017 M04/M06 A2967 RMK SLP061

Heure: 11:24 (15:24 UTC)


TAF: absent

Observations et prévisions météorologiques de plus de 4000 aéroports (messages METAR et TAF).

Les stations disponibles sont représentées par des disques jaunes et rouges sur la carte.

Passer la souris dessus pour voir le nom de la station.

Cliquer dessus pour voir les observations et prévisions météorologiques.

Pour changer de carte: cliquez sur les boutons verts avec une croix noire pour zoomer, sur le bouton vert avec un tiret pour effectuer un zoom arrière, ou sur les flèches vertes pour les cartes adjacentes.


METAR-TAF: